Delta Billie — WDE8059 — position and weather

sailwx.info

Track history (hours):
 
Tides and Currents Weather Stations Pressure Air Temp Water Temp Dewpoint Dewpoint Depression Visibility Wind Speed Wind Dir Waves Ship Positions

Delta Billie

Owner: Baydelta Maritime, San Francicso, CA. More information available from US FCC via Universal Licensing System and Coast Guard Vessel Documentation Center.

Last reported at 2016-Jul-23 16:30 UTC. Time now 2016-Jul-23 16:56 UTC.
Position N 38°03' W 122°08'.

Length 30 m; draft 5.5 m.

Type: Towing. MMSI: 367401030.

Date/timePositionNaut miles runAvg speedWind from/ knotsBaromVisibWave heightAir tempDewpointWater temp
2016-Jul-23 16:30N 38°03' W 122°08'0 0.0
2016-Jul-23 15:30N 38°03' W 122°08'0 0.0
2016-Jul-23 14:22N 38°03' W 122°08'0 0.0
2016-Jul-23 13:33N 38°03' W 122°08'0 0.0
2016-Jul-23 12:32N 38°03' W 122°08'0 0.0
2016-Jul-23 11:33N 38°03' W 122°08'0 0.0
2016-Jul-23 10:31N 38°03' W 122°08'0 0.0
2016-Jul-23 09:31N 38°03' W 122°08'6 1.9
2016-Jul-23 06:33N 38°04' W 122°15'11 5.6
2016-Jul-23 04:33N 37°56' W 122°25'1 1.2
2016-Jul-23 03:33N 37°54' W 122°25'1 1.0
2016-Jul-23 02:33N 37°55' W 122°25'0 0.3
2016-Jul-23 01:29N 37°56' W 122°25'6 6.8
2016-Jul-23 00:33N 38°02' W 122°23'9 9.1
2016-Jul-22 23:32N 38°03' W 122°11'2 2.0
2016-Jul-22 22:21N 38°03' W 122°08'0 0.0
2016-Jul-22 15:27N 38°03' W 122°08'1 0.5
2016-Jul-22 12:33N 38°03' W 122°06'18 2.3
2016-Jul-22 04:33N 37°51' W 122°24'3 3.0
2016-Jul-22 03:33N 37°48' W 122°24'0 0.0
2016-Jul-22 02:33N 37°48' W 122°24'0 0.0
2016-Jul-22 01:33N 37°48' W 122°24'0 0.0
2016-Jul-22 00:33N 37°48' W 122°24'0 0.0
2016-Jul-21 23:33N 37°48' W 122°24'0 0.0
2016-Jul-21 22:33N 37°48' W 122°24'3 2.7
2016-Jul-21 21:33N 37°48' W 122°21'2 1.7
2016-Jul-21 20:34N 37°48' W 122°19'1 1.3
2016-Jul-21 19:33N 37°48' W 122°20'3 2.9
2016-Jul-21 18:33N 37°48' W 122°24'0 0.0
2016-Jul-21 17:33N 37°48' W 122°24'0 0.0
2016-Jul-21 16:33N 37°48' W 122°24'4 4.0
2016-Jul-21 15:33N 37°48' W 122°19'1 1.2
2016-Jul-21 14:33N 37°48' W 122°17'3 3.5
2016-Jul-21 13:33N 37°48' W 122°22'2 1.7
2016-Jul-21 12:33N 37°48' W 122°24'0 0.0
2016-Jul-21 11:34N 37°48' W 122°24'6 5.6
2016-Jul-21 10:33N 37°49' W 122°31'6 6.2
2016-Jul-21 09:33N 37°54' W 122°27'9 8.7
2016-Jul-21 08:33N 38°02' W 122°22'7 7.2
2016-Jul-21 07:33N 38°04' W 122°13'6 5.9
2016-Jul-21 06:33N 38°03' W 122°05'2 1.7
2016-Jul-21 05:31N 38°03' W 122°08'0 0.1
2016-Jul-21 03:12N 38°03' W 122°08'1 1.0
2016-Jul-21 02:33N 38°02' W 122°08'2 1.7
2016-Jul-21 01:34N 38°03' W 122°06'0 0.0
2016-Jul-21 00:30N 38°03' W 122°06'1 1.2
2016-Jul-20 23:32N 38°02' W 122°07'1 0.0
2016-Jul-20 08:12N 38°03' W 122°08'2 1.3
2016-Jul-20 06:25N 38°03' W 122°11'3 1.8
2016-Jul-20 04:32N 38°04' W 122°15'6 5.7
2016-Jul-20 03:31N 38°03' W 122°08'1 0.3
2016-Jul-20 00:20N 38°02' W 122°09'1 1.6
2016-Jul-19 23:30N 38°02' W 122°10'11 5.5
2016-Jul-19 21:27N 38°00' W 122°24'7 5.6
2016-Jul-19 20:09N 37°53' W 122°25'4 6.2
2016-Jul-19 19:32N 37°49' W 122°24'4 4.2
2016-Jul-19 18:33N 37°46' W 122°21'3 2.7
2016-Jul-19 17:33N 37°44' W 122°19'8 7.8
2016-Jul-19 16:33N 37°51' W 122°24'4 4.0
2016-Jul-19 15:27N 37°55' W 122°25'1 1.3
2016-Jul-19 14:29N 37°54' W 122°25'7 7.5
2016-Jul-19 13:34N 37°48' W 122°20'2 2.3
2016-Jul-19 12:33N 37°48' W 122°18'5 4.6
2016-Jul-19 11:33N 37°48' W 122°23'1 0.5
2016-Jul-19 10:32N 37°48' W 122°24'0 0.0
2016-Jul-19 09:27N 37°48' W 122°24'0 0.0
2016-Jul-19 08:31N 37°48' W 122°24'0 0.0
2016-Jul-19 07:26N 37°48' W 122°24'0 0.0
2016-Jul-19 02:26N 37°48' W 122°24'5 5.3
2016-Jul-19 01:33N 37°53' W 122°25'9 9.1
2016-Jul-19 00:33N 38°02' W 122°22'11 1.5
2016-Jul-18 17:20N 38°02' W 122°08'6 0.7
2016-Jul-18 08:33N 38°03' W 122°16'2 2.0
2016-Jul-18 07:33N 38°04' W 122°13'0 0.0
2016-Jul-17 18:15N 38°04' W 122°13'9 8.5
2016-Jul-17 17:08N 38°00' W 122°24'8 1.6
2016-Jul-17 12:19N 37°53' W 122°26'5 6.3
2016-Jul-17 11:34N 37°49' W 122°30'12 8.2
2016-Jul-17 10:06N 38°00' W 122°25'912.4
2016-Jul-17 09:22N 38°04' W 122°14'7 5.9
2016-Jul-17 08:12N 38°03' W 122°05'6 9.3
2016-Jul-17 07:31N 38°04' W 122°14'2 1.4
2016-Jul-17 06:13N 38°03' W 122°16'2 0.1
2016-Jul-16 13:27N 38°04' W 122°13'12 6.5
2016-Jul-16 11:33N 37°56' W 122°26'8 7.7
2016-Jul-16 10:27N 37°49' W 122°21'1 1.0
2016-Jul-16 09:33N 37°48' W 122°22'2 1.1
2016-Jul-16 08:13N 37°48' W 122°24'0 0.0
2016-Jul-16 07:29N 37°48' W 122°24'0 0.0
2016-Jul-16 06:24N 37°48' W 122°24'0 0.0
2016-Jul-16 02:25N 37°48' W 122°24'2 1.1
2016-Jul-16 00:33N 37°48' W 122°21'3 2.7
2016-Jul-15 23:33N 37°48' W 122°18'4 4.0
2016-Jul-15 22:34N 37°48' W 122°23'1 0.9
2016-Jul-15 21:30N 37°48' W 122°24'0 0.0
2016-Jul-15 20:31N 37°48' W 122°24'0 0.0
2016-Jul-15 19:32N 37°48' W 122°24'0 0.0
2016-Jul-15 18:33N 37°48' W 122°24'1 1.1
2016-Jul-15 17:33N 37°48' W 122°23'4 3.5
2016-Jul-15 16:34N 37°45' W 122°20'3 3.3
2016-Jul-15 15:33N 37°48' W 122°21'0 0.0
2016-Jul-15 14:31N 37°48' W 122°21'8 5.7
2016-Jul-15 13:10N 37°55' W 122°25'3 4.4
2016-Jul-15 12:33N 37°53' W 122°25'7 7.1
2016-Jul-15 11:33N 37°46' W 122°21'3 3.0
2016-Jul-15 10:33N 37°48' W 122°24'0 0.0
2016-Jul-15 09:33N 37°48' W 122°24'0 0.0
2016-Jul-15 08:33N 37°48' W 122°24'0 0.0
2016-Jul-15 07:33N 37°48' W 122°24'0 0.0
2016-Jul-15 06:33N 37°48' W 122°24'0 0.0
2016-Jul-15 05:33N 37°48' W 122°24'0 0.0
2016-Jul-15 04:31N 37°48' W 122°24'0 0.0
2016-Jul-15 03:32N 37°48' W 122°24'0 0.3
2016-Jul-15 02:34N 37°48' W 122°24'4 3.9
2016-Jul-15 01:33N 37°48' W 122°19'7 6.7
2016-Jul-15 00:33N 37°53' W 122°25'8 7.6
2016-Jul-14 23:33N 38°00' W 122°24'9 8.9
2016-Jul-14 22:33N 38°04' W 122°14'5 2.4
2016-Jul-14 20:19N 38°02' W 122°07'1 1.0
2016-Jul-14 19:32N 38°02' W 122°08'0 0.2
2016-Jul-14 17:13N 38°02' W 122°08'0 0.3
2016-Jul-14 15:29N 38°02' W 122°08'0 0.0
2016-Jul-14 14:25N 38°02' W 122°08'0 0.0
2016-Jul-14 13:27N 38°02' W 122°08'0 0.0
2016-Jul-14 12:32N 38°02' W 122°08'0 0.0
2016-Jul-14 11:33N 38°02' W 122°08'0 0.0
2016-Jul-14 10:33N 38°02' W 122°08'0 0.0
2016-Jul-14 09:28N 38°02' W 122°08'0 0.0
2016-Jul-14 08:32N 38°02' W 122°08'0 0.0
2016-Jul-14 07:33N 38°02' W 122°08'0 0.1
2016-Jul-14 05:33N 38°02' W 122°08'  
Track history (hours):
 
Tides and Currents Weather Stations Pressure Air Temp Water Temp Dewpoint Dewpoint Depression Visibility Wind Speed Wind Dir Waves Ship Positions

Delta Billie

Owner: Baydelta Maritime, San Francicso, CA. More information available from US FCC via Universal Licensing System and Coast Guard Vessel Documentation Center.

Last reported at 2016-Jul-23 16:30 UTC. Time now 2016-Jul-23 16:56 UTC.
Position N 38°03' W 122°08'.

Length 30 m; draft 5.5 m.

Type: Towing. MMSI: 367401030.

Date/timePositionNaut miles runAvg speedWind from/ knotsBaromVisibWave heightAir tempDewpointWater temp
2016-Jul-23 16:30N 38°03' W 122°08'0 0.0
2016-Jul-23 15:30N 38°03' W 122°08'0 0.0
2016-Jul-23 14:22N 38°03' W 122°08'0 0.0
2016-Jul-23 13:33N 38°03' W 122°08'0 0.0
2016-Jul-23 12:32N 38°03' W 122°08'0 0.0
2016-Jul-23 11:33N 38°03' W 122°08'0 0.0
2016-Jul-23 10:31N 38°03' W 122°08'0 0.0
2016-Jul-23 09:31N 38°03' W 122°08'6 1.9
2016-Jul-23 06:33N 38°04' W 122°15'11 5.6
2016-Jul-23 04:33N 37°56' W 122°25'1 1.2
2016-Jul-23 03:33N 37°54' W 122°25'1 1.0
2016-Jul-23 02:33N 37°55' W 122°25'0 0.3
2016-Jul-23 01:29N 37°56' W 122°25'6 6.8
2016-Jul-23 00:33N 38°02' W 122°23'9 9.1
2016-Jul-22 23:32N 38°03' W 122°11'2 2.0
2016-Jul-22 22:21N 38°03' W 122°08'0 0.0
2016-Jul-22 15:27N 38°03' W 122°08'1 0.5
2016-Jul-22 12:33N 38°03' W 122°06'18 2.3
2016-Jul-22 04:33N 37°51' W 122°24'3 3.0
2016-Jul-22 03:33N 37°48' W 122°24'0 0.0
2016-Jul-22 02:33N 37°48' W 122°24'0 0.0
2016-Jul-22 01:33N 37°48' W 122°24'0 0.0
2016-Jul-22 00:33N 37°48' W 122°24'0 0.0
2016-Jul-21 23:33N 37°48' W 122°24'0 0.0
2016-Jul-21 22:33N 37°48' W 122°24'3 2.7
2016-Jul-21 21:33N 37°48' W 122°21'2 1.7
2016-Jul-21 20:34N 37°48' W 122°19'1 1.3
2016-Jul-21 19:33N 37°48' W 122°20'3 2.9
2016-Jul-21 18:33N 37°48' W 122°24'0 0.0
2016-Jul-21 17:33N 37°48' W 122°24'0 0.0
2016-Jul-21 16:33N 37°48' W 122°24'4 4.0
2016-Jul-21 15:33N 37°48' W 122°19'1 1.2
2016-Jul-21 14:33N 37°48' W 122°17'3 3.5
2016-Jul-21 13:33N 37°48' W 122°22'2 1.7
2016-Jul-21 12:33N 37°48' W 122°24'0 0.0
2016-Jul-21 11:34N 37°48' W 122°24'6 5.6
2016-Jul-21 10:33N 37°49' W 122°31'6 6.2
2016-Jul-21 09:33N 37°54' W 122°27'9 8.7
2016-Jul-21 08:33N 38°02' W 122°22'7 7.2
2016-Jul-21 07:33N 38°04' W 122°13'6 5.9
2016-Jul-21 06:33N 38°03' W 122°05'2 1.7
2016-Jul-21 05:31N 38°03' W 122°08'0 0.1
2016-Jul-21 03:12N 38°03' W 122°08'1 1.0
2016-Jul-21 02:33N 38°02' W 122°08'2 1.7
2016-Jul-21 01:34N 38°03' W 122°06'0 0.0
2016-Jul-21 00:30N 38°03' W 122°06'1 1.2
2016-Jul-20 23:32N 38°02' W 122°07'1 0.0
2016-Jul-20 08:12N 38°03' W 122°08'2 1.3
2016-Jul-20 06:25N 38°03' W 122°11'3 1.8
2016-Jul-20 04:32N 38°04' W 122°15'6 5.7
2016-Jul-20 03:31N 38°03' W 122°08'1 0.3
2016-Jul-20 00:20N 38°02' W 122°09'1 1.6
2016-Jul-19 23:30N 38°02' W 122°10'11 5.5
2016-Jul-19 21:27N 38°00' W 122°24'7 5.6
2016-Jul-19 20:09N 37°53' W 122°25'4 6.2
2016-Jul-19 19:32N 37°49' W 122°24'4 4.2
2016-Jul-19 18:33N 37°46' W 122°21'3 2.7
2016-Jul-19 17:33N 37°44' W 122°19'8 7.8
2016-Jul-19 16:33N 37°51' W 122°24'4 4.0
2016-Jul-19 15:27N 37°55' W 122°25'1 1.3
2016-Jul-19 14:29N 37°54' W 122°25'7 7.5
2016-Jul-19 13:34N 37°48' W 122°20'2 2.3
2016-Jul-19 12:33N 37°48' W 122°18'5 4.6
2016-Jul-19 11:33N 37°48' W 122°23'1 0.5
2016-Jul-19 10:32N 37°48' W 122°24'0 0.0
2016-Jul-19 09:27N 37°48' W 122°24'0 0.0
2016-Jul-19 08:31N 37°48' W 122°24'0 0.0
2016-Jul-19 07:26N 37°48' W 122°24'0 0.0
2016-Jul-19 02:26N 37°48' W 122°24'5 5.3
2016-Jul-19 01:33N 37°53' W 122°25'9 9.1
2016-Jul-19 00:33N 38°02' W 122°22'11 1.5
2016-Jul-18 17:20N 38°02' W 122°08'6 0.7
2016-Jul-18 08:33N 38°03' W 122°16'2 2.0
2016-Jul-18 07:33N 38°04' W 122°13'0 0.0
2016-Jul-17 18:15N 38°04' W 122°13'9 8.5
2016-Jul-17 17:08N 38°00' W 122°24'8 1.6
2016-Jul-17 12:19N 37°53' W 122°26'5 6.3
2016-Jul-17 11:34N 37°49' W 122°30'12 8.2
2016-Jul-17 10:06N 38°00' W 122°25'912.4
2016-Jul-17 09:22N 38°04' W 122°14'7 5.9
2016-Jul-17 08:12N 38°03' W 122°05'6 9.3
2016-Jul-17 07:31N 38°04' W 122°14'2 1.4
2016-Jul-17 06:13N 38°03' W 122°16'2 0.1
2016-Jul-16 13:27N 38°04' W 122°13'12 6.5
2016-Jul-16 11:33N 37°56' W 122°26'8 7.7
2016-Jul-16 10:27N 37°49' W 122°21'1 1.0
2016-Jul-16 09:33N 37°48' W 122°22'2 1.1
2016-Jul-16 08:13N 37°48' W 122°24'0 0.0
2016-Jul-16 07:29N 37°48' W 122°24'0 0.0
2016-Jul-16 06:24N 37°48' W 122°24'0 0.0
2016-Jul-16 02:25N 37°48' W 122°24'2 1.1
2016-Jul-16 00:33N 37°48' W 122°21'3 2.7
2016-Jul-15 23:33N 37°48' W 122°18'4 4.0
2016-Jul-15 22:34N 37°48' W 122°23'1 0.9
2016-Jul-15 21:30N 37°48' W 122°24'0 0.0
2016-Jul-15 20:31N 37°48' W 122°24'0 0.0
2016-Jul-15 19:32N 37°48' W 122°24'0 0.0
2016-Jul-15 18:33N 37°48' W 122°24'1 1.1
2016-Jul-15 17:33N 37°48' W 122°23'4 3.5
2016-Jul-15 16:34N 37°45' W 122°20'3 3.3
2016-Jul-15 15:33N 37°48' W 122°21'0 0.0
2016-Jul-15 14:31N 37°48' W 122°21'8 5.7
2016-Jul-15 13:10N 37°55' W 122°25'3 4.4
2016-Jul-15 12:33N 37°53' W 122°25'7 7.1
2016-Jul-15 11:33N 37°46' W 122°21'3 3.0
2016-Jul-15 10:33N 37°48' W 122°24'0 0.0
2016-Jul-15 09:33N 37°48' W 122°24'0 0.0
2016-Jul-15 08:33N 37°48' W 122°24'0 0.0
2016-Jul-15 07:33N 37°48' W 122°24'0 0.0
2016-Jul-15 06:33N 37°48' W 122°24'0 0.0
2016-Jul-15 05:33N 37°48' W 122°24'0 0.0
2016-Jul-15 04:31N 37°48' W 122°24'0 0.0
2016-Jul-15 03:32N 37°48' W 122°24'0 0.3
2016-Jul-15 02:34N 37°48' W 122°24'4 3.9
2016-Jul-15 01:33N 37°48' W 122°19'7 6.7
2016-Jul-15 00:33N 37°53' W 122°25'8 7.6
2016-Jul-14 23:33N 38°00' W 122°24'9 8.9
2016-Jul-14 22:33N 38°04' W 122°14'5 2.4
2016-Jul-14 20:19N 38°02' W 122°07'1 1.0
2016-Jul-14 19:32N 38°02' W 122°08'0 0.2
2016-Jul-14 17:13N 38°02' W 122°08'0 0.3
2016-Jul-14 15:29N 38°02' W 122°08'0 0.0
2016-Jul-14 14:25N 38°02' W 122°08'0 0.0
2016-Jul-14 13:27N 38°02' W 122°08'0 0.0
2016-Jul-14 12:32N 38°02' W 122°08'0 0.0
2016-Jul-14 11:33N 38°02' W 122°08'0 0.0
2016-Jul-14 10:33N 38°02' W 122°08'0 0.0
2016-Jul-14 09:28N 38°02' W 122°08'0 0.0
2016-Jul-14 08:32N 38°02' W 122°08'0 0.0
2016-Jul-14 07:33N 38°02' W 122°08'0 0.1
2016-Jul-14 05:33N 38°02' W 122°08'  

Dump ship's entire track history